Time;durP1;ratioP1;P1;durP2;ratioP2;P2;SDS_P1;SDS_P2;PMS_P1;PMS_P2;Temp;Humidity;BMP_temperature;BMP_pressure;BME280_temperature;BME280_humidity;BME280_pressure;Samples;Min_cycle;Max_cycle;Signal;HPM_P1;HPM_P2
2022/01/04 00:01:27;;;;;;;5.85;2.47;;;;;;;10.86;51.99;99572.06;3122017;28;20059;-74
2022/01/04 00:03:00;;;;;;;3.88;2.67;;;;;;;10.92;52.24;99589.97;3125417;28;20582;-72
2022/01/04 00:04:32;;;;;;;5.82;3.22;;;;;;;10.91;52.05;99585.66;3119776;28;20804;-73
2022/01/04 00:06:04;;;;;;;6.40;3.00;;;;;;;10.90;52.06;99576.19;3122351;28;20053;-73
2022/01/04 00:07:36;;;;;;;6.18;2.88;;;;;;;10.82;52.09;99576.56;3122446;28;20130;-73
2022/01/04 00:09:08;;;;;;;4.97;2.80;;;;;;;10.86;52.41;99587.69;3122242;28;20505;-73
2022/01/04 00:10:40;;;;;;;4.68;2.80;;;;;;;10.85;52.23;99578.16;3117213;28;20463;-72
2022/01/04 00:14:03;;;;;;;5.85;3.15;;;;;;;10.79;52.46;99588.88;3121718;28;20193;-72
2022/01/04 00:15:39;;;;;;;5.28;3.28;;;;;;;10.77;52.45;99586.38;3121493;28;20060;-72
2022/01/04 00:17:10;;;;;;;4.88;3.08;;;;;;;10.76;52.57;99578.63;3121391;28;20273;-72
2022/01/04 00:18:43;;;;;;;8.02;3.92;;;;;;;10.75;52.76;99589.97;3123225;28;20677;-72
2022/01/04 00:20:15;;;;;;;5.82;3.58;;;;;;;10.70;52.61;99587.56;3119853;28;20106;-72
2022/01/04 00:21:47;;;;;;;5.47;3.20;;;;;;;10.69;52.66;99586.75;3121351;28;20049;-73
2022/01/04 00:23:19;;;;;;;7.93;3.17;;;;;;;10.68;52.70;99589.44;3121410;28;20130;-73
2022/01/04 00:24:52;;;;;;;8.23;3.30;;;;;;;10.41;53.11;99549.94;3120891;28;20564;-73
2022/01/04 00:26:24;;;;;;;6.47;3.15;;;;;;;10.57;53.18;99583.91;3117770;28;20106;-72
2022/01/04 00:27:56;;;;;;;5.72;3.33;;;;;;;10.47;53.10;99575.69;3120501;28;20061;-72
2022/01/04 00:29:29;;;;;;;5.10;2.75;;;;;;;10.62;52.93;99597.56;3121447;28;20182;-73
2022/01/04 00:31:01;;;;;;;5.47;3.03;;;;;;;10.56;53.17;99596.09;3122301;28;20056;-72
2022/01/04 00:32:33;;;;;;;5.88;3.60;;;;;;;10.55;53.08;99594.38;3121500;28;20136;-72
2022/01/04 00:34:05;;;;;;;7.35;3.80;;;;;;;10.54;53.23;99597.91;3121760;28;20048;-72
2022/01/04 00:35:37;;;;;;;8.90;3.97;;;;;;;10.53;53.39;99597.97;3122404;28;20111;-72
2022/01/04 00:37:10;;;;;;;6.32;3.42;;;;;;;10.49;53.55;99597.28;3120270;28;20049;-72
2022/01/04 00:38:42;;;;;;;6.72;3.15;;;;;;;10.44;53.41;99597.50;3122367;28;20164;-72
2022/01/04 00:40:15;;;;;;;6.90;3.28;;;;;;;10.41;53.71;99595.06;3120094;28;20057;-72
2022/01/04 00:41:47;;;;;;;7.63;3.40;;;;;;;10.39;53.61;99601.25;3121839;28;20291;-72
2022/01/04 00:43:19;;;;;;;7.00;3.80;;;;;;;10.34;53.73;99598.00;3112009;28;20061;-72
2022/01/04 00:44:51;;;;;;;8.35;3.70;;;;;;;10.33;53.70;99598.94;3120185;28;20106;-71
2022/01/04 00:46:24;;;;;;;7.10;3.30;;;;;;;10.29;53.68;99598.22;3121299;28;20497;-71
2022/01/04 00:49:46;;;;;;;6.07;3.42;;;;;;;10.20;54.04;99601.22;3122593;28;20076;-71
2022/01/04 00:51:17;;;;;;;9.32;2.78;;;;;;;10.19;54.19;99596.94;3126194;28;20068;-71
2022/01/04 00:52:49;;;;;;;7.85;3.90;;;;;;;10.16;54.27;99591.88;3120077;28;20053;-71
2022/01/04 00:54:22;;;;;;;6.00;3.20;;;;;;;9.93;54.52;99559.97;3120078;28;20057;-73
2022/01/04 00:55:54;;;;;;;;;;;;;;;9.90;54.60;99593.09;3119034;28;20594;-72
2022/01/04 00:57:26;;;;;;;5.80;3.30;;;;;;;9.93;54.99;99585.97;3121820;28;19987;-73
2022/01/04 00:58:58;;;;;;;5.43;3.10;;;;;;;9.96;54.76;99583.22;3122601;28;20127;-73
2022/01/04 01:00:33;;;;;;;6.90;3.58;;;;;;;9.96;54.86;99578.03;3118147;28;20044;-73
2022/01/04 01:02:06;;;;;;;5.57;2.90;;;;;;;9.91;54.63;99580.03;3121309;28;20052;-73
2022/01/04 01:03:38;;;;;;;6.13;2.97;;;;;;;9.90;55.03;99580.06;3122671;28;20045;-72
2022/01/04 01:05:11;;;;;;;7.15;2.78;;;;;;;9.87;54.83;99582.81;3120854;28;20057;-72
2022/01/04 01:06:43;;;;;;;6.50;2.60;;;;;;;9.88;55.01;99587.09;3115157;28;20174;-72
2022/01/04 01:08:14;;;;;;;7.10;3.15;;;;;;;9.83;54.84;99579.53;3117675;28;20053;-72
2022/01/04 01:10:00;;;;;;;8.05;3.35;;;;;;;9.85;55.14;99588.09;3121747;28;20085;-72
2022/01/04 01:11:33;;;;;;;7.57;3.53;;;;;;;9.84;55.06;99593.38;3113253;28;20213;-72
2022/01/04 01:13:04;;;;;;;7.22;3.15;;;;;;;9.80;54.94;99588.31;3121238;28;20049;-72
2022/01/04 01:14:36;;;;;;;4.82;2.60;;;;;;;9.85;54.99;99597.63;3125366;28;20193;-72
2022/01/04 01:16:12;;;;;;;6.25;2.88;;;;;;;9.84;55.12;99588.16;3124570;28;20099;-72
2022/01/04 01:17:44;;;;;;;5.82;2.90;;;;;;;9.83;55.10;99589.09;3124522;28;20123;-72
2022/01/04 01:19:16;;;;;;;6.25;2.70;;;;;;;9.83;55.08;99586.50;3123967;28;20469;-73
2022/01/04 01:20:49;;;;;;;7.13;2.85;;;;;;;9.83;54.87;99587.31;3122060;28;20470;-73
2022/01/04 01:22:21;;;;;;;6.70;3.35;;;;;;;9.81;54.90;99583.94;3123477;28;20110;-73
2022/01/04 01:23:53;;;;;;;6.30;2.90;;;;;;;9.83;54.60;99589.94;3124283;28;20755;-73
2022/01/04 01:25:24;;;;;;;6.93;2.88;;;;;;;9.85;54.96;99592.44;3122344;28;20354;-72
2022/01/04 01:26:56;;;;;;;5.65;2.58;;;;;;;9.85;54.57;99595.03;3118023;28;20049;-73
2022/01/04 01:28:29;;;;;;;6.50;2.63;;;;;;;9.86;54.71;99592.38;3117765;28;20045;-73
2022/01/04 01:30:00;;;;;;;4.85;2.15;;;;;;;9.84;54.83;99593.38;3122169;28;20550;-73
2022/01/04 01:31:33;;;;;;;7.78;2.70;;;;;;;9.87;54.56;99588.03;3123693;28;20144;-73
2022/01/04 01:33:04;;;;;;;;;;;;;;;9.70;54.80;99588.78;3121778;28;20057;-73
2022/01/04 01:34:36;;;;;;;3.72;2.15;;;;;;;9.76;54.86;99589.38;3124772;28;20318;-72
2022/01/04 01:36:08;;;;;;;6.20;2.80;;;;;;;9.80;54.73;99588.31;3123392;28;20057;-73
2022/01/04 01:37:40;;;;;;;6.30;2.90;;;;;;;9.85;55.02;99584.63;3122616;28;20049;-73
2022/01/04 01:39:13;;;;;;;6.88;2.97;;;;;;;9.84;54.59;99588.16;3122607;28;20053;-73
2022/01/04 01:40:46;;;;;;;6.63;2.78;;;;;;;9.83;54.66;99583.88;3119247;28;20100;-73
2022/01/04 01:42:18;;;;;;;8.32;2.95;;;;;;;9.73;54.73;99563.50;3124535;28;20159;-73
2022/01/04 01:43:56;;;;;;;4.43;2.45;;;;;;;9.84;55.05;99577.75;3125223;28;20091;-73
2022/01/04 01:45:29;;;;;;;4.70;2.53;;;;;;;9.80;54.95;99572.69;3128445;28;20087;-73
2022/01/04 01:47:02;;;;;;;6.05;2.70;;;;;;;9.80;54.93;99572.69;3133549;28;20051;-73
2022/01/04 01:48:34;;;;;;;5.40;2.50;;;;;;;9.77;54.89;99565.03;3130833;28;20140;-73
2022/01/04 01:50:06;;;;;;;5.35;2.70;;;;;;;9.75;54.86;99566.03;3132880;28;20056;-72
2022/01/04 01:51:38;;;;;;;5.00;2.55;;;;;;;9.75;54.87;99563.41;3133730;28;20455;-72
2022/01/04 01:53:10;;;;;;;6.00;2.97;;;;;;;9.72;54.84;99553.16;3132369;28;20371;-72
2022/01/04 01:54:42;;;;;;;6.25;2.45;;;;;;;9.66;55.12;99541.28;3126873;28;20053;-72
2022/01/04 01:56:14;;;;;;;9.50;2.58;;;;;;;9.70;55.24;99558.44;3131423;28;20434;-72
2022/01/04 01:57:45;;;;;;;4.20;2.30;;;;;;;9.52;55.03;99525.44;3132302;28;20049;-72
2022/01/04 01:59:17;;;;;;;6.30;2.55;;;;;;;9.68;54.96;99555.06;3133255;28;20044;-72
2022/01/04 02:00:49;;;;;;;5.75;2.55;;;;;;;9.65;55.28;99559.56;3131532;28;20102;-73
2022/01/04 02:02:22;;;;;;;3.70;2.25;;;;;;;9.64;54.90;99560.44;3132901;28;20118;-74
2022/01/04 02:03:54;;;;;;;5.00;2.30;;;;;;;9.59;55.01;99558.06;3133033;28;20532;-73
2022/01/04 02:05:26;;;;;;;6.88;2.40;;;;;;;9.62;54.96;99563.13;3130606;28;20128;-73
2022/01/04 02:06:58;;;;;;;5.97;2.28;;;;;;;9.56;54.96;99558.22;3131185;28;20136;-72
2022/01/04 02:08:30;;;;;;;7.53;2.40;;;;;;;9.58;55.04;99569.38;3131989;28;20069;-73
2022/01/04 02:10:04;;;;;;;3.97;2.20;;;;;;;9.45;55.08;99544.84;3133698;28;20052;-73
2022/01/04 02:11:37;;;;;;;5.22;2.17;;;;;;;9.56;55.31;99558.22;3133183;28;20129;-73
2022/01/04 02:13:09;;;;;;;5.65;2.20;;;;;;;9.49;55.17;99557.63;3129348;28;20072;-73
2022/01/04 02:14:49;;;;;;;6.40;2.50;;;;;;;9.51;55.39;99570.56;3129921;28;20045;-73
2022/01/04 02:16:21;;;;;;;8.80;2.35;;;;;;;9.47;55.21;99566.44;3124535;28;20106;-73
2022/01/04 02:17:54;;;;;;;5.68;2.67;;;;;;;9.43;55.21;99560.50;3128888;28;20147;-74
2022/01/04 02:19:26;;;;;;;9.20;2.75;;;;;;;9.39;55.76;99561.56;3133383;28;20391;-73
2022/01/04 02:21:00;;;;;;;6.45;3.17;;;;;;;9.39;55.90;99560.72;3131450;28;20048;-73
2022/01/04 02:22:33;;;;;;;7.28;2.45;;;;;;;9.32;55.43;99554.97;3132858;28;20455;-73
2022/01/04 02:24:05;;;;;;;8.00;2.65;;;;;;;8.97;55.81;99510.56;3132496;28;20055;-73
2022/01/04 02:25:37;;;;;;;7.03;3.55;;;;;;;9.23;55.96;99560.53;3130964;28;20107;-73
2022/01/04 02:27:08;;;;;;;5.57;2.60;;;;;;;9.10;56.03;99547.22;3132907;28;20048;-73
2022/01/04 02:28:41;;;;;;;6.75;2.92;;;;;;;9.24;55.96;99576.06;3131519;28;20049;-74
2022/01/04 02:30:15;;;;;;;6.00;2.83;;;;;;;9.22;56.24;99577.88;3129479;28;20581;-73
2022/01/04 02:31:46;;;;;;;8.50;2.80;;;;;;;9.18;56.29;99578.94;3121840;28;20076;-73
2022/01/04 02:33:18;;;;;;;5.70;3.15;;;;;;;9.17;56.10;99571.19;3131076;28;20056;-73
2022/01/04 02:34:51;;;;;;;5.82;3.00;;;;;;;9.13;56.55;99569.63;3132099;28;20064;-73
2022/01/04 02:36:24;;;;;;;4.78;2.40;;;;;;;9.07;56.60;99574.19;3130105;28;20048;-73
2022/01/04 02:37:57;;;;;;;8.20;3.08;;;;;;;9.07;56.75;99575.94;3131384;28;20053;-73
2022/01/04 02:39:30;;;;;;;8.13;2.72;;;;;;;9.03;56.84;99569.19;3127510;28;20045;-73
2022/01/04 02:41:02;;;;;;;5.95;2.78;;;;;;;9.01;56.86;99565.81;3130682;28;20053;-74
2022/01/04 02:42:34;;;;;;;6.25;3.00;;;;;;;8.99;56.86;99563.28;3132768;28;20056;-74
2022/01/04 02:44:06;;;;;;;6.90;3.08;;;;;;;8.85;56.72;99550.03;3131266;28;20053;-72
2022/01/04 02:45:38;;;;;;;7.30;3.03;;;;;;;8.96;57.09;99563.44;3131697;28;20047;-74
2022/01/04 02:47:09;;;;;;;5.28;3.20;;;;;;;8.95;56.80;99569.50;3128958;28;20049;-74
2022/01/04 02:48:43;;;;;;;6.82;3.15;;;;;;;8.94;57.23;99569.59;3130439;28;20041;-73
2022/01/04 02:50:15;;;;;;;6.03;3.33;;;;;;;8.91;57.33;99574.91;3131407;28;20053;-74
2022/01/04 02:51:47;;;;;;;6.55;3.88;;;;;;;8.87;57.47;99562.06;3126644;28;20060;-74
2022/01/04 02:53:20;;;;;;;8.02;3.63;;;;;;;8.86;57.36;99570.72;3130554;28;20110;-74
2022/01/04 02:54:52;;;;;;;6.37;3.77;;;;;;;8.82;57.37;99576.97;3130717;28;20049;-74
2022/01/04 02:56:23;;;;;;;8.80;3.35;;;;;;;8.81;57.57;99579.63;3129667;28;20114;-74
2022/01/04 02:57:55;;;;;;;6.25;2.90;;;;;;;8.77;57.52;99584.09;3130777;28;20480;-74
2022/01/04 02:59:26;;;;;;;7.10;3.53;;;;;;;8.75;57.84;99587.66;3132911;28;20146;-74
2022/01/04 03:00:58;;;;;;;4.95;3.30;;;;;;;8.69;57.87;99586.16;3129858;28;20049;-74
2022/01/04 03:02:30;;;;;;;5.75;3.08;;;;;;;8.66;57.86;99592.31;3136534;28;20429;-72
2022/01/04 03:04:02;;;;;;;5.60;3.38;;;;;;;8.64;58.25;99598.50;3127741;28;20060;-71
2022/01/04 03:05:34;;;;;;;7.93;3.40;;;;;;;8.60;57.88;99608.16;3130377;28;20045;-72
2022/01/04 03:07:07;;;;;;;8.68;3.53;;;;;;;8.57;58.05;99599.63;3132704;28;20049;-73
2022/01/04 03:08:39;;;;;;;6.55;3.45;;;;;;;8.53;58.25;99600.69;3131906;28;20045;-71
2022/01/04 03:10:11;;;;;;;28.90;4.10;;;;;;;8.51;58.54;99605.06;3132121;28;20138;-71
2022/01/04 03:11:42;;;;;;;5.03;2.90;;;;;;;8.33;58.56;99571.13;3132814;28;20131;-72
2022/01/04 03:13:16;;;;;;;11.30;3.17;;;;;;;8.46;58.37;99594.91;3130048;28;20049;-73
2022/01/04 03:14:48;;;;;;;5.72;3.03;;;;;;;8.43;58.55;99590.66;3132035;28;20057;-70
2022/01/04 03:16:20;;;;;;;7.93;3.83;;;;;;;8.40;58.53;99601.16;3126002;28;20103;-70
2022/01/04 03:17:52;;;;;;;6.63;3.40;;;;;;;8.38;58.72;99604.69;3128509;28;20107;-70
2022/01/04 03:19:24;;;;;;;7.05;3.35;;;;;;;8.33;58.70;99591.88;3122404;28;20052;-70
2022/01/04 03:20:56;;;;;;;8.65;4.00;;;;;;;8.29;58.73;99592.94;3126249;28;20048;-70
2022/01/04 03:22:29;;;;;;;8.32;3.70;;;;;;;8.29;58.86;99592.09;3130622;28;20522;-70
2022/01/04 03:24:01;;;;;;;6.57;3.95;;;;;;;8.20;59.14;99581.16;3132655;28;20462;-70
2022/01/04 03:25:33;;;;;;;8.75;4.65;;;;;;;8.21;59.21;99589.78;3130247;28;20778;-72
2022/01/04 03:27:06;;;;;;;8.80;4.03;;;;;;;8.19;59.17;99582.06;3129216;28;20049;-73
2022/01/04 03:28:40;;;;;;;12.23;5.00;;;;;;;8.16;59.24;99584.78;3124983;28;20045;-73
2022/01/04 03:30:12;;;;;;;10.35;4.47;;;;;;;8.12;59.26;99577.16;3129474;28;21069;-73
2022/01/04 03:31:45;;;;;;;12.23;5.28;;;;;;;8.11;59.53;99583.28;3124843;28;20473;-72
2022/01/04 03:33:16;;;;;;;12.50;4.45;;;;;;;8.05;59.40;99573.97;3128751;28;20049;-72
2022/01/04 03:34:49;;;;;;;11.40;4.70;;;;;;;8.01;59.62;99567.19;3131778;28;20207;-72
2022/01/04 03:36:22;;;;;;;7.65;4.47;;;;;;;8.06;59.49;99582.59;3132226;28;20057;-72
2022/01/04 03:37:56;;;;;;;16.70;6.40;;;;;;;8.03;59.45;99580.13;3130105;28;20085;-71
2022/01/04 03:39:28;;;;;;;11.25;5.00;;;;;;;8.00;59.64;99593.19;3132336;28;20122;-70
2022/01/04 03:40:59;;;;;;;11.77;5.03;;;;;;;7.92;59.87;99578.75;3131348;28;20502;-71
2022/01/04 03:42:31;;;;;;;11.70;5.15;;;;;;;7.92;59.70;99585.69;3132539;28;20049;-70
2022/01/04 03:44:03;;;;;;;10.32;5.15;;;;;;;7.95;59.82;99593.38;3132419;28;20080;-71
2022/01/04 03:45:35;;;;;;;10.25;4.90;;;;;;;7.93;59.74;99590.00;3129133;28;20084;-71
2022/01/04 03:47:07;;;;;;;9.43;4.65;;;;;;;7.91;59.82;99594.38;3131740;28;20111;-71
2022/01/04 03:48:39;;;;;;;13.55;5.10;;;;;;;7.87;59.96;99591.06;3131177;28;20439;-71
2022/01/04 03:50:11;;;;;;;9.60;4.53;;;;;;;7.85;60.18;99592.88;3129893;28;20060;-70
2022/01/04 03:51:43;;;;;;;8.35;4.15;;;;;;;7.51;59.97;99549.19;3127444;28;20441;-71
2022/01/04 03:53:16;;;;;;;6.85;3.80;;;;;;;7.83;60.17;99601.59;3130389;28;20045;-71
2022/01/04 03:54:48;;;;;;;10.32;4.28;;;;;;;7.80;60.20;99605.16;3131528;28;20052;-71
2022/01/04 03:56:20;;;;;;;7.30;4.20;;;;;;;7.79;60.17;99602.63;3125951;28;20079;-71
2022/01/04 03:57:52;;;;;;;9.93;4.25;;;;;;;7.78;60.26;99598.31;3128407;28;20497;-70
2022/01/04 03:59:24;;;;;;;9.35;4.53;;;;;;;7.75;60.54;99594.97;3131374;28;20147;-70
2022/01/04 04:00:56;;;;;;;8.73;3.50;;;;;;;7.75;60.51;99602.75;3131525;28;20053;-71
2022/01/04 04:02:28;;;;;;;6.38;3.40;;;;;;;7.74;60.41;99606.22;3130343;28;20053;-71
2022/01/04 04:04:00;;;;;;;7.03;3.40;;;;;;;7.71;60.30;99601.16;3131850;28;20059;-72
2022/01/04 04:05:32;;;;;;;9.60;3.70;;;;;;;7.71;60.28;99606.31;3131097;28;20045;-71
2022/01/04 04:07:04;;;;;;;5.57;3.35;;;;;;;7.69;60.61;99608.16;3130559;28;20118;-71
2022/01/04 04:08:39;;;;;;;9.32;2.95;;;;;;;7.70;60.35;99599.47;3131761;28;20118;-71
2022/01/04 04:10:11;;;;;;;6.97;3.30;;;;;;;7.68;60.58;99609.03;3129727;28;20052;-72
2022/01/04 04:11:43;;;;;;;5.95;2.97;;;;;;;7.70;60.35;99606.41;3122042;28;20454;-71
2022/01/04 04:13:15;;;;;;;6.93;3.15;;;;;;;7.66;60.15;99597.03;3123999;28;20064;-71
2022/01/04 04:14:47;;;;;;;10.20;2.95;;;;;;;7.69;60.51;99612.47;3129989;28;20041;-70
2022/01/04 04:16:19;;;;;;;5.65;2.65;;;;;;;7.66;60.45;99597.91;3132042;28;20541;-71
2022/01/04 04:17:51;;;;;;;9.25;3.20;;;;;;;7.66;60.27;99605.69;3128801;28;20122;-71
2022/01/04 04:19:23;;;;;;;7.28;3.47;;;;;;;7.67;60.29;99614.28;3126633;28;20103;-72
2022/01/04 04:20:55;;;;;;;9.30;3.70;;;;;;;7.64;60.28;99604.88;3131439;28;20114;-72
2022/01/04 04:22:27;;;;;;;7.03;3.10;;;;;;;7.50;60.34;99581.19;3130300;28;20052;-72
2022/01/04 04:24:00;;;;;;;8.93;3.60;;;;;;;7.66;60.26;99600.50;3129960;28;20476;-71
2022/01/04 04:25:32;;;;;;;5.45;2.80;;;;;;;7.64;60.37;99604.03;3129822;28;20534;-71
2022/01/04 04:27:05;;;;;;;6.45;2.83;;;;;;;7.63;60.57;99600.59;3131353;28;20041;-71
2022/01/04 04:28:37;;;;;;;6.35;2.88;;;;;;;7.58;60.55;99586.13;3124055;28;20514;-71
2022/01/04 04:30:10;;;;;;;5.40;2.72;;;;;;;7.62;60.61;99590.28;3127414;28;20053;-71
2022/01/04 04:31:42;;;;;;;7.45;3.60;;;;;;;7.61;60.47;99596.38;3131890;28;20126;-71
2022/01/04 04:33:14;;;;;;;6.47;3.40;;;;;;;7.61;60.34;99591.19;3130531;28;20044;-71
2022/01/04 04:34:46;;;;;;;6.90;2.90;;;;;;;7.60;60.50;99592.06;3129334;28;20103;-71
2022/01/04 04:36:18;;;;;;;6.95;3.92;;;;;;;7.56;60.33;99586.16;3131821;28;20049;-72
2022/01/04 04:37:50;;;;;;;5.90;3.80;;;;;;;7.59;60.38;99600.75;3129922;28;20049;-72
2022/01/04 04:39:23;;;;;;;6.70;3.20;;;;;;;7.58;60.52;99599.06;3130072;28;20514;-72
2022/01/04 04:40:55;;;;;;;6.35;3.15;;;;;;;7.55;60.48;99600.03;3131362;28;20651;-71
2022/01/04 04:42:27;;;;;;;6.65;3.30;;;;;;;7.54;60.45;99600.91;3129337;28;20518;-71
2022/01/04 04:43:59;;;;;;;6.20;3.28;;;;;;;7.55;60.72;99606.97;3131672;28;20431;-71
2022/01/04 04:45:31;;;;;;;7.95;3.45;;;;;;;7.52;60.56;99595.78;3124780;28;20045;-72
2022/01/04 04:47:03;;;;;;;6.55;3.53;;;;;;;7.50;60.61;99597.59;3131471;28;20049;-71
2022/01/04 04:48:34;;;;;;;6.15;3.30;;;;;;;7.49;60.70;99598.50;3131623;28;20514;-71
2022/01/04 04:50:06;;;;;;;6.55;3.55;;;;;;;7.49;60.74;99595.06;3129023;28;20060;-71
2022/01/04 04:51:38;;;;;;;7.03;3.40;;;;;;;7.47;60.83;99589.94;3129292;28;20441;-72
2022/01/04 04:53:10;;;;;;;8.43;3.22;;;;;;;7.47;60.81;99600.28;3120786;28;21260;-72
2022/01/04 04:54:43;;;;;;;6.75;3.40;;;;;;;7.48;60.68;99595.94;3130196;28;20045;-72
2022/01/04 04:56:15;;;;;;;7.40;3.88;;;;;;;7.45;60.88;99596.94;3120278;28;20045;-72
2022/01/04 04:57:47;;;;;;;9.93;3.53;;;;;;;7.46;60.86;99603.78;3129773;28;20056;-72
2022/01/04 04:59:19;;;;;;;8.35;4.13;;;;;;;7.47;60.73;99605.47;3131399;28;20053;-72
2022/01/04 05:00:51;;;;;;;7.82;3.72;;;;;;;7.48;60.64;99608.91;3131500;28;20045;-71
2022/01/04 05:02:23;;;;;;;7.85;3.63;;;;;;;7.48;60.83;99606.31;3129979;28;20072;-72
2022/01/04 05:03:55;;;;;;;7.05;2.90;;;;;;;7.34;60.64;99580.91;3130692;28;20102;-72
2022/01/04 05:05:26;;;;;;;10.57;3.42;;;;;;;7.44;60.63;99595.22;3129582;28;20057;-73
2022/01/04 05:06:58;;;;;;;7.22;3.47;;;;;;;7.50;60.54;99600.19;3130588;28;20053;-73
2022/01/04 05:08:30;;;;;;;8.68;3.42;;;;;;;7.50;60.50;99594.16;3131865;28;20501;-73
2022/01/04 05:10:05;;;;;;;9.25;3.95;;;;;;;7.53;60.63;99591.44;3129299;28;20037;-72
2022/01/04 05:11:37;;;;;;;7.30;3.55;;;;;;;7.52;60.57;99590.63;3125859;28;20104;-72
2022/01/04 05:13:08;;;;;;;8.65;4.30;;;;;;;7.53;60.38;99592.28;3120600;28;20127;-72
2022/01/04 05:14:45;;;;;;;10.18;4.53;;;;;;;7.55;60.52;99594.00;3129467;28;20449;-71
2022/01/04 05:16:17;;;;;;;9.05;4.20;;;;;;;7.53;60.63;99588.88;3130585;28;20063;-72
2022/01/04 05:17:49;;;;;;;8.20;4.45;;;;;;;7.50;60.59;99584.63;3129662;28;20079;-72
2022/01/04 05:19:21;;;;;;;10.32;3.97;;;;;;;7.51;60.67;99582.88;3130820;28;20049;-72
2022/01/04 05:20:53;;;;;;;8.93;4.57;;;;;;;7.50;60.70;99583.78;3131592;28;20075;-72
2022/01/04 05:22:24;;;;;;;10.15;3.95;;;;;;;7.49;60.41;99585.53;3129689;28;20099;-72
2022/01/04 05:23:57;;;;;;;12.40;3.92;;;;;;;7.49;60.56;99579.53;3130862;28;20107;-72
2022/01/04 05:25:30;;;;;;;12.65;4.38;;;;;;;7.48;60.65;99583.00;3131029;28;20455;-73
2022/01/04 05:27:02;;;;;;;19.73;6.43;;;;;;;7.45;61.00;99572.75;3129179;28;20119;-72
2022/01/04 05:28:34;;;;;;;13.32;5.15;;;;;;;7.43;61.02;99585.75;3122243;28;20442;-72
2022/01/04 05:30:07;;;;;;;13.32;5.38;;;;;;;7.44;60.99;99582.25;3126943;28;20099;-72
2022/01/04 05:31:39;;;;;;;10.63;4.25;;;;;;;7.42;60.96;99581.47;3130228;28;20049;-73
2022/01/04 05:33:11;;;;;;;11.77;4.28;;;;;;;7.42;60.86;99589.22;3131070;28;20053;-72
2022/01/04 05:34:43;;;;;;;9.32;4.55;;;;;;;7.35;60.85;99577.41;3128631;28;20106;-72
2022/01/04 05:36:14;;;;;;;8.02;3.88;;;;;;;7.37;61.07;99586.00;3130174;28;20134;-73
2022/01/04 05:37:46;;;;;;;10.00;3.95;;;;;;;7.40;61.00;99591.06;3129827;28;20084;-73
2022/01/04 05:39:19;;;;;;;12.30;5.05;;;;;;;7.39;61.20;99594.53;3130647;28;20521;-73
2022/01/04 05:40:52;;;;;;;13.45;6.88;;;;;;;7.41;61.03;99597.06;3131445;28;20107;-73
2022/01/04 05:42:24;;;;;;;15.43;5.53;;;;;;;7.37;61.29;99598.94;3129397;28;20485;-73
2022/01/04 05:43:56;;;;;;;11.07;5.22;;;;;;;7.37;61.17;99606.72;3129783;28;20126;-73
2022/01/04 05:45:28;;;;;;;11.00;5.28;;;;;;;7.37;61.20;99606.72;3130511;28;20114;-73
2022/01/04 05:47:00;;;;;;;11.45;4.45;;;;;;;7.39;61.01;99604.88;3130590;28;20502;-72
2022/01/04 05:48:32;;;;;;;10.00;4.20;;;;;;;7.38;60.97;99600.63;3128124;28;20049;-72
2022/01/04 05:50:06;;;;;;;14.57;4.03;;;;;;;7.42;61.15;99602.19;3128570;28;20103;-71
2022/01/04 05:51:37;;;;;;;11.30;4.57;;;;;;;7.41;61.10;99600.50;3131457;28;20114;-71
2022/01/04 05:53:09;;;;;;;11.35;4.32;;;;;;;7.41;60.87;99586.72;3132453;28;20063;-71
2022/01/04 05:54:42;;;;;;;8.50;4.18;;;;;;;7.41;61.11;99587.56;3127068;28;20799;-71
2022/01/04 05:56:15;;;;;;;8.70;4.32;;;;;;;7.44;60.85;99586.59;3119787;28;20057;-71
2022/01/04 05:57:47;;;;;;;;;;;;;;;7.26;61.40;99596.72;3122009;28;20056;-71
2022/01/04 05:59:20;;;;;;;11.90;4.10;;;;;;;7.33;61.46;99599.94;3123910;28;20045;-73
2022/01/04 06:00:55;;;;;;;12.63;3.80;;;;;;;7.40;61.25;99596.25;3123125;28;20045;-71
2022/01/04 06:02:27;;;;;;;12.95;4.43;;;;;;;7.38;60.97;99590.25;3122736;28;20099;-73
2022/01/04 06:03:59;;;;;;;8.38;4.07;;;;;;;7.44;61.07;99596.97;3123935;28;20597;-73
2022/01/04 06:05:31;;;;;;;18.38;4.53;;;;;;;7.48;61.10;99599.41;3122890;28;20045;-73
2022/01/04 06:07:04;;;;;;;9.38;4.00;;;;;;;7.49;60.92;99593.31;3123952;28;20102;-73
2022/01/04 06:08:37;;;;;;;9.18;4.07;;;;;;;7.53;60.80;99597.47;3124609;28;20057;-73
2022/01/04 06:10:12;;;;;;;13.48;4.22;;;;;;;7.39;60.89;99568.63;3122132;28;20052;-73
2022/01/04 06:11:58;;;;;;;14.23;4.40;;;;;;;7.60;60.70;99612.81;3124059;28;20217;-73
2022/01/04 06:15:19;;;;;;;11.25;4.28;;;;;;;7.68;60.55;99615.97;3122486;28;20490;-73
2022/01/04 06:16:51;;;;;;;12.90;5.03;;;;;;;7.73;60.58;99621.84;3123080;28;20143;-73
2022/01/04 06:18:22;;;;;;;16.88;5.60;;;;;;;7.80;60.41;99625.88;3121796;28;20134;-72
2022/01/04 06:19:55;;;;;;;13.15;4.78;;;;;;;7.83;60.55;99619.75;3122406;28;20106;-72
2022/01/04 06:21:27;;;;;;;14.60;5.37;;;;;;;7.89;60.51;99619.53;3122149;28;20290;-74
2022/01/04 06:22:59;;;;;;;14.90;5.00;;;;;;;8.03;60.39;99622.44;3121378;28;20336;-74
2022/01/04 06:24:31;;;;;;;9.82;4.57;;;;;;;8.19;60.31;99633.06;3124116;28;20068;-73
2022/01/04 06:26:03;;;;;;;14.10;4.70;;;;;;;8.32;59.83;99634.31;3121724;28;20053;-72
2022/01/04 06:27:37;;;;;;;9.63;4.43;;;;;;;8.41;59.48;99623.59;3123697;28;20502;-71
2022/01/04 06:29:11;;;;;;;12.63;5.13;;;;;;;8.56;59.28;99629.94;3122378;28;20080;-68
2022/01/04 06:30:44;;;;;;;10.95;5.70;;;;;;;8.66;58.82;99623.47;3123762;28;20484;-66
2022/01/04 06:32:17;;;;;;;13.48;5.90;;;;;;;8.76;58.89;99623.97;3122063;28;20056;-71
2022/01/04 06:33:49;;;;;;;10.48;5.55;;;;;;;8.84;58.56;99621.03;3120494;28;20044;-74
2022/01/04 06:35:21;;;;;;;15.20;4.95;;;;;;;8.93;58.12;99625.00;3122116;28;20452;-72
2022/01/04 06:36:53;;;;;;;10.63;4.30;;;;;;;9.03;57.57;99623.75;3123432;28;20048;-72
2022/01/04 06:38:26;;;;;;;10.65;4.30;;;;;;;9.10;57.36;99617.38;3121504;28;20326;-72
2022/01/04 06:39:58;;;;;;;12.38;6.32;;;;;;;9.19;56.76;99622.19;3123431;28;20048;-72
2022/01/04 06:41:30;;;;;;;21.65;11.20;;;;;;;9.30;56.87;99619.97;3122127;28;20475;-73
2022/01/04 06:43:04;;;;;;;24.15;11.80;;;;;;;9.42;56.39;99615.16;3122275;28;20626;-72
2022/01/04 06:44:35;;;;;;;;;;;;;;;9.32;56.72;99625.13;3125601;28;20518;-72
2022/01/04 06:46:10;;;;;;;10.93;5.25;;;;;;;9.15;56.39;99578.22;3122442;28;20027;-73
2022/01/04 06:47:42;;;;;;;10.40;5.47;;;;;;;9.57;55.62;99633.53;3123451;28;20743;-71
2022/01/04 06:49:15;;;;;;;16.10;6.55;;;;;;;9.71;55.61;99632.09;3121786;28;20049;-72
2022/01/04 06:50:47;;;;;;;16.90;6.00;;;;;;;9.79;55.11;99630.00;3123561;28;20045;-70
2022/01/04 06:52:19;;;;;;;19.40;8.25;;;;;;;9.88;55.00;99634.78;3122481;28;20697;-69
2022/01/04 06:53:52;;;;;;;21.33;7.30;;;;;;;9.91;54.73;99629.44;3122556;28;20045;-71
2022/01/04 06:55:24;;;;;;;28.02;13.23;;;;;;;10.02;54.68;99634.13;3121269;28;20107;-71
2022/01/04 06:56:56;;;;;;;55.60;23.45;;;;;;;10.08;54.34;99641.66;3120130;28;20060;-70
2022/01/04 06:58:30;;;;;;;50.45;24.08;;;;;;;10.15;54.04;99639.66;3122506;28;20368;-71
2022/01/04 07:00:03;;;;;;;30.15;12.00;;;;;;;10.21;54.46;99640.19;3121492;28;20371;-71
2022/01/04 07:01:37;;;;;;;42.20;15.98;;;;;;;10.28;53.91;99643.38;3120099;28;20088;-76
2022/01/04 07:03:09;;;;;;;42.05;15.57;;;;;;;10.32;53.77;99644.94;3123982;28;20057;-77
2022/01/04 07:04:41;;;;;;;39.63;12.95;;;;;;;10.38;53.52;99649.88;3123068;28;20609;-80
2022/01/04 07:06:13;;;;;;;36.72;12.32;;;;;;;10.35;53.62;99636.13;3123364;28;20132;-79
2022/01/04 07:07:45;;;;;;;35.20;11.52;;;;;;;10.52;53.20;99651.81;3117530;28;20559;-78
2022/01/04 07:09:18;;;;;;;27.52;11.18;;;;;;;10.58;53.44;99646.31;3121334;28;20057;-80
2022/01/04 07:10:50;;;;;;;25.60;10.48;;;;;;;10.61;53.07;99643.56;3123140;28;20381;-77
2022/01/04 07:12:22;;;;;;;33.13;11.23;;;;;;;10.69;52.70;99640.59;3121317;28;20102;-78
2022/01/04 07:13:56;;;;;;;29.58;10.95;;;;;;;10.70;52.66;99630.09;3120525;28;20053;-78
2022/01/04 07:15:28;;;;;;;33.03;11.90;;;;;;;10.80;52.57;99634.88;3123339;28;20057;-78
2022/01/04 07:17:00;;;;;;;36.55;11.27;;;;;;;10.82;52.73;99631.25;3121549;28;20052;-78
2022/01/04 07:18:32;;;;;;;29.70;11.13;;;;;;;10.82;52.51;99614.78;3120628;28;20606;-78
2022/01/04 07:20:06;;;;;;;32.85;11.00;;;;;;;10.96;52.40;99633.19;3123022;28;20505;-77
2022/01/04 07:21:38;;;;;;;34.35;11.15;;;;;;;10.62;52.12;99559.31;3120352;28;20126;-78
2022/01/04 07:23:10;;;;;;;36.92;13.07;;;;;;;11.04;52.12;99619.78;3121987;28;20598;-77
2022/01/04 07:24:42;;;;;;;33.00;12.48;;;;;;;11.10;51.77;99617.72;3121810;28;20053;-76